Cornville, AZ (86325)

8:55 AM MST on August 28, 2014 (GMT -0700)
Cornville by the ditch ARS KB7CN | Change Station
CLOSE
Current Station
Personal Weather Station
Location: Cornville, AZ
Elevation: 3317 ft
Nearby Weather Stations

Elev 3317 ft 34.72 °N, 111.92 °W | Updated 2 seconds ago

Clear
Clear
72.0 °F
Feels Like 74 °F
N
0.0
Wind Variable Wind from South
Gusts 0.0 mph

Today
High -- | Low -- °F
--% Chance of Precip.
Yesterday
High -- | Low -- °F
Precip. -- in
5:57 AM 6:59 PM
Waxing Crescent, 8% visible
Pressure 30.24 in
Visibility 10.0 miles
Clouds Clear
Heat Index 74 °F
Dew Point 62 °F
Humidity 72%
Rainfall 0.00 in
Snow Depth Not available.
UV 4 out of 12
Pollen 6.50 out of 12
Air Quality Not available.
Flu Activity Not available.
METAR KSEZ 281535Z AUTO 00000KT 10SM CLR 22/10 A3024 RMK AO2

More Conditions Fewer Conditions

Pressure 30.24 in
Visibility 10.0 miles
Clouds Clear
Heat Index 74 °F
Dew Point 62 °F
Humidity 72%
Rainfall 0.00 in
Snow Depth Not available.
UV 4 out of 12
Pollen 6.50 out of 12
Air Quality Not available.
Flu Activity Not available.
METAR KSEZ 281535Z AUTO 00000KT 10SM CLR 22/10 A3024 RMK AO2

More Conditions Fewer Conditions

10-Day Weather Forecast

Almanac

Astronomy

Aug. 28, 2014 Rise Set
Actual Time 5:57 AM MST 6:59 PM MST
Civil Twilight 5:31 AM MST 7:25 PM MST
Nautical Twilight 5:00 AM MST 7:55 PM MST
Astronomical Twilight 4:29 AM MST 8:27 PM MST
Moon 8:44 AM MST 8:35 PM MST
Length of Visible Light 13h 53m
Length of Day
13h 01m
Tomorrow will be 2m 4s shorter.
Waxing Crescent, 8% of the Moon is Illuminated
Today
Waxing Crescent
Sep 2
First Quarter
Sep 8
Full
Sep 15
Last Quarter
Sep 24
New

Today's Extremes

State Highs State Lows

Community

WunderPhotos

Upload Photos

1,747,993 photos uploaded!

Nearby

Snow Depth

Station Depth Elevation
White Horse Lake 0 in 7180 ft
Snowslide Canyon 1 in 9730 ft
Workman Creek 1 in 6900 ft
Maverick Fork 0 in 9200 ft
Wildcat 0 in 7850 ft

Earthquake Activity

City Distance Mag. Time & Date
No recent earthquake activity has been reported nearby.
Minimum magnitude displayed is 2.5.

Coastal Water Temperatures

Place Temperature
No Stations Reporting

Nearby Weather Stations